<?xml version="1.0" encoding="UTF-8" standalone="no" ?>
<gpx xmlns="http://www.topografix.com/GPX/1/1" xmlns:xsi="http://www.w3.org/2001/XMLSchema-instance" xsi:schemaLocation="http://www.topografix.com/GPX/1/1 http://www.topografix.com/GPX/1/1/gpx.xsd" version="1.1" creator="VisuGPX - https://www.visugpx.com">
  <metadata>
    <name>Circuits Saint Front - Ferme de Cambres</name>
    <desc><![CDATA[Pour info]]></desc>
  </metadata>
  <wpt lat="44.59307" lon="0.92272">
    <ele>234.1</ele>
    <name><![CDATA[GR36]]></name>
    <desc><![CDATA[Liaison]]></desc>
    <type><![CDATA[activite]]></type>
  </wpt>
  <trk>
    <name><![CDATA[Circuits Saint Front - Ferme de Cambres_11]]></name>
    <extensions>
      <line xmlns="http://www.topografix.com/GPX/gpx_style/0/2">
        <color>888800</color>
        <width>4</width>
      </line>
    </extensions>
    <trkseg>
      <trkpt lat="44.61381" lon="0.75389">
        <ele>142</ele>
        <time>2019-06-09T04:26:26Z</time>
      </trkpt>
      <trkpt lat="44.61306" lon="0.75336">
        <ele>150</ele>
        <time>2019-06-09T04:25:19Z</time>
      </trkpt>
      <trkpt lat="44.61296" lon="0.75332">
        <ele>152</ele>
        <time>2019-06-09T04:25:10Z</time>
      </trkpt>
      <trkpt lat="44.61274" lon="0.75332">
        <ele>154</ele>
        <time>2019-06-09T04:24:53Z</time>
      </trkpt>
      <trkpt lat="44.61222" lon="0.7534">
        <ele>156</ele>
        <time>2019-06-09T04:24:11Z</time>
      </trkpt>
      <trkpt lat="44.61212" lon="0.75339">
        <ele>157</ele>
        <time>2019-06-09T04:24:03Z</time>
      </trkpt>
      <trkpt lat="44.6114" lon="0.75346">
        <ele>161</ele>
        <time>2019-06-09T04:23:05Z</time>
      </trkpt>
      <trkpt lat="44.61113" lon="0.75357">
        <ele>163</ele>
        <time>2019-06-09T04:22:42Z</time>
      </trkpt>
      <trkpt lat="44.61096" lon="0.75358">
        <ele>164</ele>
        <time>2019-06-09T04:22:29Z</time>
      </trkpt>
      <trkpt lat="44.61052" lon="0.75371">
        <ele>167</ele>
        <time>2019-06-09T04:21:53Z</time>
      </trkpt>
      <trkpt lat="44.60981" lon="0.75401">
        <ele>172</ele>
        <time>2019-06-09T04:20:53Z</time>
      </trkpt>
      <trkpt lat="44.60943" lon="0.75429">
        <ele>173</ele>
        <time>2019-06-09T04:20:19Z</time>
      </trkpt>
      <trkpt lat="44.60888" lon="0.75455">
        <ele>172</ele>
        <time>2019-06-09T04:19:33Z</time>
      </trkpt>
      <trkpt lat="44.60851" lon="0.75479">
        <ele>171</ele>
        <time>2019-06-09T04:19:00Z</time>
      </trkpt>
      <trkpt lat="44.60815" lon="0.75497">
        <ele>170</ele>
        <time>2019-06-09T04:18:29Z</time>
      </trkpt>
      <trkpt lat="44.60753" lon="0.75506">
        <ele>169</ele>
        <time>2019-06-09T04:17:39Z</time>
      </trkpt>
      <trkpt lat="44.60707" lon="0.75505">
        <ele>169</ele>
        <time>2019-06-09T04:17:03Z</time>
      </trkpt>
      <trkpt lat="44.6067" lon="0.75499">
        <ele>168</ele>
        <time>2019-06-09T04:16:33Z</time>
      </trkpt>
      <trkpt lat="44.60575" lon="0.7551">
        <ele>164</ele>
        <time>2019-06-09T04:15:16Z</time>
      </trkpt>
      <trkpt lat="44.60549" lon="0.75508">
        <ele>165</ele>
        <time>2019-06-09T04:14:56Z</time>
      </trkpt>
      <trkpt lat="44.60504" lon="0.75512">
        <ele>166</ele>
        <time>2019-06-09T04:14:20Z</time>
      </trkpt>
      <trkpt lat="44.60452" lon="0.75508">
        <ele>166</ele>
        <time>2019-06-09T04:13:38Z</time>
      </trkpt>
      <trkpt lat="44.60394" lon="0.75477">
        <ele>167</ele>
        <time>2019-06-09T04:12:48Z</time>
      </trkpt>
      <trkpt lat="44.6035" lon="0.75437">
        <ele>167</ele>
        <time>2019-06-09T04:12:06Z</time>
      </trkpt>
      <trkpt lat="44.60329" lon="0.75424">
        <ele>168</ele>
        <time>2019-06-09T04:11:48Z</time>
      </trkpt>
      <trkpt lat="44.60284" lon="0.75412">
        <ele>168</ele>
        <time>2019-06-09T04:11:11Z</time>
      </trkpt>
      <trkpt lat="44.60273" lon="0.75406">
        <ele>168</ele>
        <time>2019-06-09T04:11:02Z</time>
      </trkpt>
      <trkpt lat="44.6026" lon="0.75407">
        <ele>167</ele>
        <time>2019-06-09T04:10:51Z</time>
      </trkpt>
      <trkpt lat="44.60245" lon="0.75422">
        <ele>168</ele>
        <time>2019-06-09T04:10:37Z</time>
      </trkpt>
      <trkpt lat="44.60222" lon="0.75459">
        <ele>166</ele>
        <time>2019-06-09T04:10:09Z</time>
      </trkpt>
      <trkpt lat="44.60185" lon="0.7553">
        <ele>164</ele>
        <time>2019-06-09T04:09:18Z</time>
      </trkpt>
      <trkpt lat="44.60133" lon="0.75641">
        <ele>154</ele>
        <time>2019-06-09T04:08:03Z</time>
      </trkpt>
      <trkpt lat="44.60099" lon="0.75685">
        <ele>149</ele>
        <time>2019-06-09T04:07:26Z</time>
      </trkpt>
      <trkpt lat="44.60077" lon="0.7572">
        <ele>148</ele>
        <time>2019-06-09T04:06:59Z</time>
      </trkpt>
      <trkpt lat="44.6006" lon="0.75739">
        <ele>147</ele>
        <time>2019-06-09T04:06:42Z</time>
      </trkpt>
      <trkpt lat="44.60013" lon="0.75811">
        <ele>143</ele>
        <time>2019-06-09T04:05:46Z</time>
      </trkpt>
      <trkpt lat="44.60002" lon="0.75821">
        <ele>142</ele>
        <time>2019-06-09T04:05:35Z</time>
      </trkpt>
      <trkpt lat="44.5999" lon="0.75822">
        <ele>141</ele>
        <time>2019-06-09T04:05:26Z</time>
      </trkpt>
      <trkpt lat="44.59924" lon="0.75791">
        <ele>137</ele>
        <time>2019-06-09T04:04:30Z</time>
      </trkpt>
      <trkpt lat="44.59915" lon="0.75794">
        <ele>137</ele>
        <time>2019-06-09T04:04:23Z</time>
      </trkpt>
      <trkpt lat="44.59906" lon="0.7582">
        <ele>137</ele>
        <time>2019-06-09T04:04:06Z</time>
      </trkpt>
      <trkpt lat="44.59901" lon="0.75879">
        <ele>137</ele>
        <time>2019-06-09T04:03:32Z</time>
      </trkpt>
      <trkpt lat="44.59877" lon="0.7596">
        <ele>138</ele>
        <time>2019-06-09T04:02:42Z</time>
      </trkpt>
      <trkpt lat="44.59868" lon="0.76001">
        <ele>139</ele>
        <time>2019-06-09T04:02:18Z</time>
      </trkpt>
      <trkpt lat="44.59853" lon="0.76114">
        <ele>142</ele>
        <time>2019-06-09T04:01:12Z</time>
      </trkpt>
      <trkpt lat="44.59842" lon="0.76178">
        <ele>144</ele>
        <time>2019-06-09T04:00:35Z</time>
      </trkpt>
      <trkpt lat="44.59843" lon="0.76204">
        <ele>144</ele>
        <time>2019-06-09T04:00:20Z</time>
      </trkpt>
      <trkpt lat="44.59847" lon="0.76215">
        <ele>145</ele>
        <time>2019-06-09T04:00:13Z</time>
      </trkpt>
      <trkpt lat="44.59856" lon="0.76222">
        <ele>146</ele>
        <time>2019-06-09T04:00:05Z</time>
      </trkpt>
      <trkpt lat="44.59901" lon="0.76242">
        <ele>149</ele>
        <time>2019-06-09T03:59:27Z</time>
      </trkpt>
      <trkpt lat="44.59928" lon="0.76257">
        <ele>150</ele>
        <time>2019-06-09T03:59:04Z</time>
      </trkpt>
      <trkpt lat="44.59936" lon="0.76264">
        <ele>150</ele>
        <time>2019-06-09T03:58:56Z</time>
      </trkpt>
      <trkpt lat="44.59965" lon="0.76272">
        <ele>148</ele>
        <time>2019-06-09T03:58:32Z</time>
      </trkpt>
      <trkpt lat="44.60012" lon="0.76292">
        <ele>146</ele>
        <time>2019-06-09T03:57:53Z</time>
      </trkpt>
      <trkpt lat="44.6003" lon="0.76305">
        <ele>146</ele>
        <time>2019-06-09T03:57:37Z</time>
      </trkpt>
      <trkpt lat="44.60038" lon="0.76314">
        <ele>147</ele>
        <time>2019-06-09T03:57:29Z</time>
      </trkpt>
      <trkpt lat="44.60059" lon="0.7636">
        <ele>148</ele>
        <time>2019-06-09T03:56:57Z</time>
      </trkpt>
      <trkpt lat="44.60067" lon="0.76368">
        <ele>148</ele>
        <time>2019-06-09T03:56:50Z</time>
      </trkpt>
      <trkpt lat="44.60185" lon="0.76461">
        <ele>151</ele>
        <time>2019-06-09T03:55:01Z</time>
      </trkpt>
      <trkpt lat="44.60293" lon="0.76533">
        <ele>154</ele>
        <time>2019-06-09T03:53:26Z</time>
      </trkpt>
      <trkpt lat="44.60355" lon="0.76578">
        <ele>156</ele>
        <time>2019-06-09T03:52:30Z</time>
      </trkpt>
      <trkpt lat="44.60397" lon="0.76615">
        <ele>155</ele>
        <time>2019-06-09T03:51:50Z</time>
      </trkpt>
      <trkpt lat="44.60439" lon="0.76647">
        <ele>155</ele>
        <time>2019-06-09T03:51:12Z</time>
      </trkpt>
      <trkpt lat="44.60482" lon="0.76684">
        <ele>158</ele>
        <time>2019-06-09T03:50:31Z</time>
      </trkpt>
      <trkpt lat="44.60491" lon="0.76695">
        <ele>159</ele>
        <time>2019-06-09T03:50:22Z</time>
      </trkpt>
      <trkpt lat="44.60494" lon="0.7672">
        <ele>161</ele>
        <time>2019-06-09T03:50:07Z</time>
      </trkpt>
      <trkpt lat="44.60486" lon="0.76733">
        <ele>161</ele>
        <time>2019-06-09T03:49:58Z</time>
      </trkpt>
      <trkpt lat="44.60428" lon="0.76804">
        <ele>161</ele>
        <time>2019-06-09T03:48:56Z</time>
      </trkpt>
      <trkpt lat="44.60404" lon="0.76842">
        <ele>163</ele>
        <time>2019-06-09T03:48:27Z</time>
      </trkpt>
      <trkpt lat="44.60372" lon="0.76875">
        <ele>165</ele>
        <time>2019-06-09T03:47:55Z</time>
      </trkpt>
      <trkpt lat="44.6035" lon="0.76888">
        <ele>165</ele>
        <time>2019-06-09T03:47:36Z</time>
      </trkpt>
      <trkpt lat="44.60289" lon="0.76914">
        <ele>168</ele>
        <time>2019-06-09T03:46:45Z</time>
      </trkpt>
      <trkpt lat="44.6026" lon="0.76919">
        <ele>169</ele>
        <time>2019-06-09T03:46:22Z</time>
      </trkpt>
      <trkpt lat="44.6023" lon="0.76916">
        <ele>171</ele>
        <time>2019-06-09T03:45:58Z</time>
      </trkpt>
      <trkpt lat="44.60193" lon="0.76907">
        <ele>173</ele>
        <time>2019-06-09T03:45:28Z</time>
      </trkpt>
      <trkpt lat="44.60108" lon="0.76907">
        <ele>178</ele>
        <time>2019-06-09T03:44:19Z</time>
      </trkpt>
      <trkpt lat="44.60078" lon="0.769">
        <ele>178</ele>
        <time>2019-06-09T03:43:55Z</time>
      </trkpt>
      <trkpt lat="44.60051" lon="0.76886">
        <ele>177</ele>
        <time>2019-06-09T03:43:32Z</time>
      </trkpt>
      <trkpt lat="44.60029" lon="0.76878">
        <ele>176</ele>
        <time>2019-06-09T03:43:14Z</time>
      </trkpt>
      <trkpt lat="44.60005" lon="0.76875">
        <ele>176</ele>
        <time>2019-06-09T03:42:55Z</time>
      </trkpt>
      <trkpt lat="44.59992" lon="0.76878">
        <ele>177</ele>
        <time>2019-06-09T03:42:44Z</time>
      </trkpt>
      <trkpt lat="44.5999" lon="0.7692">
        <ele>183</ele>
        <time>2019-06-09T03:42:20Z</time>
      </trkpt>
      <trkpt lat="44.59992" lon="0.76992">
        <ele>189</ele>
        <time>2019-06-09T03:41:39Z</time>
      </trkpt>
      <trkpt lat="44.59996" lon="0.77037">
        <ele>188</ele>
        <time>2019-06-09T03:41:13Z</time>
      </trkpt>
      <trkpt lat="44.59966" lon="0.77061">
        <ele>189</ele>
        <time>2019-06-09T03:40:45Z</time>
      </trkpt>
      <trkpt lat="44.59933" lon="0.77093">
        <ele>190</ele>
        <time>2019-06-09T03:40:13Z</time>
      </trkpt>
      <trkpt lat="44.59916" lon="0.77105">
        <ele>190</ele>
        <time>2019-06-09T03:39:58Z</time>
      </trkpt>
      <trkpt lat="44.59902" lon="0.77125">
        <ele>188</ele>
        <time>2019-06-09T03:39:42Z</time>
      </trkpt>
      <trkpt lat="44.59895" lon="0.77167">
        <ele>186</ele>
        <time>2019-06-09T03:39:18Z</time>
      </trkpt>
      <trkpt lat="44.59892" lon="0.7724">
        <ele>190</ele>
        <time>2019-06-09T03:38:36Z</time>
      </trkpt>
      <trkpt lat="44.59887" lon="0.77283">
        <ele>191</ele>
        <time>2019-06-09T03:38:11Z</time>
      </trkpt>
      <trkpt lat="44.59881" lon="0.77311">
        <ele>191</ele>
        <time>2019-06-09T03:37:54Z</time>
      </trkpt>
      <trkpt lat="44.59873" lon="0.77337">
        <ele>191</ele>
        <time>2019-06-09T03:37:38Z</time>
      </trkpt>
      <trkpt lat="44.59852" lon="0.77386">
        <ele>190</ele>
        <time>2019-06-09T03:37:06Z</time>
      </trkpt>
      <trkpt lat="44.59833" lon="0.77446">
        <ele>188</ele>
        <time>2019-06-09T03:36:28Z</time>
      </trkpt>
      <trkpt lat="44.59836" lon="0.77521">
        <ele>188</ele>
        <time>2019-06-09T03:35:45Z</time>
      </trkpt>
      <trkpt lat="44.59831" lon="0.77539">
        <ele>188</ele>
        <time>2019-06-09T03:35:34Z</time>
      </trkpt>
      <trkpt lat="44.59828" lon="0.77585">
        <ele>189</ele>
        <time>2019-06-09T03:35:08Z</time>
      </trkpt>
      <trkpt lat="44.59823" lon="0.77618">
        <ele>187</ele>
        <time>2019-06-09T03:34:49Z</time>
      </trkpt>
      <trkpt lat="44.59805" lon="0.77672">
        <ele>183</ele>
        <time>2019-06-09T03:34:15Z</time>
      </trkpt>
      <trkpt lat="44.59738" lon="0.77839">
        <ele>174</ele>
        <time>2019-06-09T03:32:25Z</time>
      </trkpt>
      <trkpt lat="44.59725" lon="0.7788">
        <ele>172</ele>
        <time>2019-06-09T03:32:00Z</time>
      </trkpt>
      <trkpt lat="44.59714" lon="0.77906">
        <ele>171</ele>
        <time>2019-06-09T03:31:43Z</time>
      </trkpt>
      <trkpt lat="44.5964" lon="0.78017">
        <ele>161</ele>
        <time>2019-06-09T03:30:16Z</time>
      </trkpt>
      <trkpt lat="44.5962" lon="0.78062">
        <ele>158</ele>
        <time>2019-06-09T03:29:46Z</time>
      </trkpt>
      <trkpt lat="44.59598" lon="0.78095">
        <ele>158</ele>
        <time>2019-06-09T03:29:20Z</time>
      </trkpt>
      <trkpt lat="44.59586" lon="0.78107">
        <ele>157</ele>
        <time>2019-06-09T03:29:08Z</time>
      </trkpt>
      <trkpt lat="44.59569" lon="0.78131">
        <ele>155</ele>
        <time>2019-06-09T03:28:49Z</time>
      </trkpt>
      <trkpt lat="44.59537" lon="0.78189">
        <ele>152</ele>
        <time>2019-06-09T03:28:07Z</time>
      </trkpt>
      <trkpt lat="44.59515" lon="0.78238">
        <ele>152</ele>
        <time>2019-06-09T03:27:34Z</time>
      </trkpt>
      <trkpt lat="44.5948" lon="0.7829">
        <ele>151</ele>
        <time>2019-06-09T03:26:53Z</time>
      </trkpt>
      <trkpt lat="44.59462" lon="0.78308">
        <ele>151</ele>
        <time>2019-06-09T03:26:35Z</time>
      </trkpt>
      <trkpt lat="44.59429" lon="0.78357">
        <ele>151</ele>
        <time>2019-06-09T03:25:57Z</time>
      </trkpt>
      <trkpt lat="44.59413" lon="0.78376">
        <ele>152</ele>
        <time>2019-06-09T03:25:40Z</time>
      </trkpt>
      <trkpt lat="44.59352" lon="0.78469">
        <ele>155</ele>
        <time>2019-06-09T03:24:28Z</time>
      </trkpt>
      <trkpt lat="44.59327" lon="0.78512">
        <ele>155</ele>
        <time>2019-06-09T03:23:56Z</time>
      </trkpt>
      <trkpt lat="44.59299" lon="0.78569">
        <ele>153</ele>
        <time>2019-06-09T03:23:17Z</time>
      </trkpt>
      <trkpt lat="44.59282" lon="0.78618">
        <ele>153</ele>
        <time>2019-06-09T03:22:46Z</time>
      </trkpt>
      <trkpt lat="44.59266" lon="0.78713">
        <ele>154</ele>
        <time>2019-06-09T03:21:50Z</time>
      </trkpt>
      <trkpt lat="44.59252" lon="0.78765">
        <ele>155</ele>
        <time>2019-06-09T03:21:19Z</time>
      </trkpt>
      <trkpt lat="44.59237" lon="0.78803">
        <ele>155</ele>
        <time>2019-06-09T03:20:54Z</time>
      </trkpt>
      <trkpt lat="44.59215" lon="0.78847">
        <ele>155</ele>
        <time>2019-06-09T03:20:23Z</time>
      </trkpt>
      <trkpt lat="44.5919" lon="0.78886">
        <ele>156</ele>
        <time>2019-06-09T03:19:53Z</time>
      </trkpt>
      <trkpt lat="44.5915" lon="0.78925">
        <ele>158</ele>
        <time>2019-06-09T03:19:14Z</time>
      </trkpt>
      <trkpt lat="44.5915" lon="0.78937">
        <ele>158</ele>
        <time>2019-06-09T03:19:07Z</time>
      </trkpt>
      <trkpt lat="44.5917" lon="0.78944">
        <ele>157</ele>
        <time>2019-06-09T03:18:51Z</time>
      </trkpt>
      <trkpt lat="44.59189" lon="0.78954">
        <ele>156</ele>
        <time>2019-06-09T03:18:35Z</time>
      </trkpt>
      <trkpt lat="44.59316" lon="0.78994">
        <ele>152</ele>
        <time>2019-06-09T03:16:50Z</time>
      </trkpt>
      <trkpt lat="44.59335" lon="0.79002">
        <ele>152</ele>
        <time>2019-06-09T03:16:35Z</time>
      </trkpt>
      <trkpt lat="44.59354" lon="0.79005">
        <ele>151</ele>
        <time>2019-06-09T03:16:19Z</time>
      </trkpt>
      <trkpt lat="44.59413" lon="0.79023">
        <ele>149</ele>
        <time>2019-06-09T03:15:31Z</time>
      </trkpt>
      <trkpt lat="44.59431" lon="0.7902">
        <ele>148</ele>
        <time>2019-06-09T03:15:16Z</time>
      </trkpt>
      <trkpt lat="44.59458" lon="0.79005">
        <ele>148</ele>
        <time>2019-06-09T03:14:53Z</time>
      </trkpt>
      <trkpt lat="44.59502" lon="0.78997">
        <ele>146</ele>
        <time>2019-06-09T03:14:18Z</time>
      </trkpt>
      <trkpt lat="44.59538" lon="0.78996">
        <ele>142</ele>
        <time>2019-06-09T03:13:49Z</time>
      </trkpt>
      <trkpt lat="44.59551" lon="0.79">
        <ele>141</ele>
        <time>2019-06-09T03:13:38Z</time>
      </trkpt>
      <trkpt lat="44.59582" lon="0.79028">
        <ele>137</ele>
        <time>2019-06-09T03:13:09Z</time>
      </trkpt>
      <trkpt lat="44.59591" lon="0.79039">
        <ele>136</ele>
        <time>2019-06-09T03:12:59Z</time>
      </trkpt>
      <trkpt lat="44.59599" lon="0.79041">
        <ele>135</ele>
        <time>2019-06-09T03:12:53Z</time>
      </trkpt>
      <trkpt lat="44.59609" lon="0.79018">
        <ele>134</ele>
        <time>2019-06-09T03:12:37Z</time>
      </trkpt>
      <trkpt lat="44.59617" lon="0.7901">
        <ele>133</ele>
        <time>2019-06-09T03:12:29Z</time>
      </trkpt>
      <trkpt lat="44.59637" lon="0.79017">
        <ele>130</ele>
        <time>2019-06-09T03:12:13Z</time>
      </trkpt>
      <trkpt lat="44.59668" lon="0.79021">
        <ele>126</ele>
        <time>2019-06-09T03:11:48Z</time>
      </trkpt>
      <trkpt lat="44.59679" lon="0.79019">
        <ele>127</ele>
        <time>2019-06-09T03:11:39Z</time>
      </trkpt>
      <trkpt lat="44.59698" lon="0.79011">
        <ele>128</ele>
        <time>2019-06-09T03:11:23Z</time>
      </trkpt>
      <trkpt lat="44.59709" lon="0.79009">
        <ele>128</ele>
        <time>2019-06-09T03:11:14Z</time>
      </trkpt>
      <trkpt lat="44.59721" lon="0.7901">
        <ele>129</ele>
        <time>2019-06-09T03:11:05Z</time>
      </trkpt>
      <trkpt lat="44.59775" lon="0.79128">
        <ele>126</ele>
        <time>2019-06-09T03:09:45Z</time>
      </trkpt>
      <trkpt lat="44.59811" lon="0.79198">
        <ele>125</ele>
        <time>2019-06-09T03:08:55Z</time>
      </trkpt>
      <trkpt lat="44.59818" lon="0.79225">
        <ele>125</ele>
        <time>2019-06-09T03:08:39Z</time>
      </trkpt>
      <trkpt lat="44.59836" lon="0.79235">
        <ele>125</ele>
        <time>2019-06-09T03:08:24Z</time>
      </trkpt>
      <trkpt lat="44.59842" lon="0.79225">
        <ele>125</ele>
        <time>2019-06-09T03:08:16Z</time>
      </trkpt>
      <trkpt lat="44.59839" lon="0.79167">
        <ele>126</ele>
        <time>2019-06-09T03:07:43Z</time>
      </trkpt>
      <trkpt lat="44.59843" lon="0.79207">
        <ele>126</ele>
        <time>2019-06-09T03:07:20Z</time>
      </trkpt>
      <trkpt lat="44.59839" lon="0.7922">
        <ele>125</ele>
        <time>2019-06-09T03:07:12Z</time>
      </trkpt>
      <trkpt lat="44.59839" lon="0.79243">
        <ele>125</ele>
        <time>2019-06-09T03:06:59Z</time>
      </trkpt>
      <trkpt lat="44.59854" lon="0.7928">
        <ele>125</ele>
        <time>2019-06-09T03:06:34Z</time>
      </trkpt>
      <trkpt lat="44.5994" lon="0.79435">
        <ele>123</ele>
        <time>2019-06-09T03:04:42Z</time>
      </trkpt>
      <trkpt lat="44.5996" lon="0.79442">
        <ele>124</ele>
        <time>2019-06-09T03:04:26Z</time>
      </trkpt>
      <trkpt lat="44.59985" lon="0.79443">
        <ele>126</ele>
        <time>2019-06-09T03:04:06Z</time>
      </trkpt>
      <trkpt lat="44.60019" lon="0.79429">
        <ele>129</ele>
        <time>2019-06-09T03:03:38Z</time>
      </trkpt>
      <trkpt lat="44.60028" lon="0.79414">
        <ele>129</ele>
        <time>2019-06-09T03:03:26Z</time>
      </trkpt>
      <trkpt lat="44.60034" lon="0.79416">
        <ele>130</ele>
        <time>2019-06-09T03:03:21Z</time>
      </trkpt>
      <trkpt lat="44.60044" lon="0.79413">
        <ele>131</ele>
        <time>2019-06-09T03:03:13Z</time>
      </trkpt>
      <trkpt lat="44.60076" lon="0.79397">
        <ele>133</ele>
        <time>2019-06-09T03:02:46Z</time>
      </trkpt>
      <trkpt lat="44.60117" lon="0.79395">
        <ele>134</ele>
        <time>2019-06-09T03:02:13Z</time>
      </trkpt>
      <trkpt lat="44.60129" lon="0.79398">
        <ele>134</ele>
        <time>2019-06-09T03:02:03Z</time>
      </trkpt>
      <trkpt lat="44.60147" lon="0.79419">
        <ele>137</ele>
        <time>2019-06-09T03:01:45Z</time>
      </trkpt>
      <trkpt lat="44.60152" lon="0.79431">
        <ele>139</ele>
        <time>2019-06-09T03:01:37Z</time>
      </trkpt>
      <trkpt lat="44.60156" lon="0.79448">
        <ele>141</ele>
        <time>2019-06-09T03:01:27Z</time>
      </trkpt>
      <trkpt lat="44.60156" lon="0.79481">
        <ele>144</ele>
        <time>2019-06-09T03:01:08Z</time>
      </trkpt>
      <trkpt lat="44.60165" lon="0.79491">
        <ele>146</ele>
        <time>2019-06-09T03:00:59Z</time>
      </trkpt>
      <trkpt lat="44.60185" lon="0.79501">
        <ele>148</ele>
        <time>2019-06-09T03:00:42Z</time>
      </trkpt>
      <trkpt lat="44.60207" lon="0.79504">
        <ele>149</ele>
        <time>2019-06-09T03:00:24Z</time>
      </trkpt>
      <trkpt lat="44.60216" lon="0.79513">
        <ele>149</ele>
        <time>2019-06-09T03:00:15Z</time>
      </trkpt>
      <trkpt lat="44.60254" lon="0.79558">
        <ele>151</ele>
        <time>2019-06-09T02:59:35Z</time>
      </trkpt>
      <trkpt lat="44.60249" lon="0.79551">
        <ele>151</ele>
        <time>2019-06-09T02:59:30Z</time>
      </trkpt>
      <trkpt lat="44.60249" lon="0.79556">
        <ele>151</ele>
        <time>2019-06-09T02:59:27Z</time>
      </trkpt>
      <trkpt lat="44.60252" lon="0.79554">
        <ele>151</ele>
        <time>2019-06-09T02:59:24Z</time>
      </trkpt>
      <trkpt lat="44.60245" lon="0.79547">
        <ele>151</ele>
        <time>2019-06-09T02:59:17Z</time>
      </trkpt>
      <trkpt lat="44.60248" lon="0.79556">
        <ele>151</ele>
        <time>2019-06-09T02:59:12Z</time>
      </trkpt>
      <trkpt lat="44.60276" lon="0.79597">
        <ele>150</ele>
        <time>2019-06-09T02:58:39Z</time>
      </trkpt>
      <trkpt lat="44.60317" lon="0.79642">
        <ele>145</ele>
        <time>2019-06-09T02:57:57Z</time>
      </trkpt>
      <trkpt lat="44.60334" lon="0.79658">
        <ele>143</ele>
        <time>2019-06-09T02:57:41Z</time>
      </trkpt>
      <trkpt lat="44.60356" lon="0.79668">
        <ele>141</ele>
        <time>2019-06-09T02:57:23Z</time>
      </trkpt>
      <trkpt lat="44.60374" lon="0.79683">
        <ele>139</ele>
        <time>2019-06-09T02:57:06Z</time>
      </trkpt>
      <trkpt lat="44.60402" lon="0.79714">
        <ele>138</ele>
        <time>2019-06-09T02:56:37Z</time>
      </trkpt>
      <trkpt lat="44.60426" lon="0.79735">
        <ele>140</ele>
        <time>2019-06-09T02:56:15Z</time>
      </trkpt>
      <trkpt lat="44.60441" lon="0.79735">
        <ele>142</ele>
        <time>2019-06-09T02:56:03Z</time>
      </trkpt>
      <trkpt lat="44.60449" lon="0.79726">
        <ele>143</ele>
        <time>2019-06-09T02:55:54Z</time>
      </trkpt>
      <trkpt lat="44.60463" lon="0.79726">
        <ele>144</ele>
        <time>2019-06-09T02:55:43Z</time>
      </trkpt>
      <trkpt lat="44.60503" lon="0.79752">
        <ele>149</ele>
        <time>2019-06-09T02:55:08Z</time>
      </trkpt>
      <trkpt lat="44.60513" lon="0.79763">
        <ele>151</ele>
        <time>2019-06-09T02:54:58Z</time>
      </trkpt>
      <trkpt lat="44.60517" lon="0.79776">
        <ele>152</ele>
        <time>2019-06-09T02:54:50Z</time>
      </trkpt>
      <trkpt lat="44.60505" lon="0.79801">
        <ele>152</ele>
        <time>2019-06-09T02:54:32Z</time>
      </trkpt>
      <trkpt lat="44.60502" lon="0.79814">
        <ele>152</ele>
        <time>2019-06-09T02:54:25Z</time>
      </trkpt>
      <trkpt lat="44.60503" lon="0.79826">
        <ele>153</ele>
        <time>2019-06-09T02:54:18Z</time>
      </trkpt>
      <trkpt lat="44.6051" lon="0.79837">
        <ele>154</ele>
        <time>2019-06-09T02:54:09Z</time>
      </trkpt>
      <trkpt lat="44.60559" lon="0.79879">
        <ele>161</ele>
        <time>2019-06-09T02:53:23Z</time>
      </trkpt>
      <trkpt lat="44.60579" lon="0.79902">
        <ele>164</ele>
        <time>2019-06-09T02:53:03Z</time>
      </trkpt>
      <trkpt lat="44.60603" lon="0.79924">
        <ele>169</ele>
        <time>2019-06-09T02:52:40Z</time>
      </trkpt>
      <trkpt lat="44.60618" lon="0.79933">
        <ele>171</ele>
        <time>2019-06-09T02:52:27Z</time>
      </trkpt>
      <trkpt lat="44.60613" lon="0.79944">
        <ele>170</ele>
        <time>2019-06-09T02:52:19Z</time>
      </trkpt>
      <trkpt lat="44.60612" lon="0.79956">
        <ele>171</ele>
        <time>2019-06-09T02:52:12Z</time>
      </trkpt>
      <trkpt lat="44.60629" lon="0.79975">
        <ele>173</ele>
        <time>2019-06-09T02:51:55Z</time>
      </trkpt>
      <trkpt lat="44.60635" lon="0.79986">
        <ele>173</ele>
        <time>2019-06-09T02:51:47Z</time>
      </trkpt>
      <trkpt lat="44.60615" lon="0.80111">
        <ele>171</ele>
        <time>2019-06-09T02:50:34Z</time>
      </trkpt>
      <trkpt lat="44.60601" lon="0.80166">
        <ele>170</ele>
        <time>2019-06-09T02:50:01Z</time>
      </trkpt>
      <trkpt lat="44.60592" lon="0.8017">
        <ele>170</ele>
        <time>2019-06-09T02:49:53Z</time>
      </trkpt>
      <trkpt lat="44.60581" lon="0.80164">
        <ele>171</ele>
        <time>2019-06-09T02:49:44Z</time>
      </trkpt>
      <trkpt lat="44.6057" lon="0.80162">
        <ele>170</ele>
        <time>2019-06-09T02:49:35Z</time>
      </trkpt>
      <trkpt lat="44.60561" lon="0.80175">
        <ele>169</ele>
        <time>2019-06-09T02:49:25Z</time>
      </trkpt>
      <trkpt lat="44.60568" lon="0.80168">
        <ele>169</ele>
        <time>2019-06-09T02:49:18Z</time>
      </trkpt>
      <trkpt lat="44.60555" lon="0.80205">
        <ele>168</ele>
        <time>2019-06-09T02:48:54Z</time>
      </trkpt>
      <trkpt lat="44.60521" lon="0.80282">
        <ele>166</ele>
        <time>2019-06-09T02:48:02Z</time>
      </trkpt>
      <trkpt lat="44.60518" lon="0.80295">
        <ele>166</ele>
        <time>2019-06-09T02:47:55Z</time>
      </trkpt>
      <trkpt lat="44.60456" lon="0.80465">
        <ele>169</ele>
        <time>2019-06-09T02:46:06Z</time>
      </trkpt>
      <trkpt lat="44.60421" lon="0.80427">
        <ele>166</ele>
        <time>2019-06-09T02:45:30Z</time>
      </trkpt>
      <trkpt lat="44.60387" lon="0.8042">
        <ele>163</ele>
        <time>2019-06-09T02:45:03Z</time>
      </trkpt>
      <trkpt lat="44.6017" lon="0.80442">
        <ele>155</ele>
        <time>2019-06-09T02:42:09Z</time>
      </trkpt>
      <trkpt lat="44.60093" lon="0.80457">
        <ele>154</ele>
        <time>2019-06-09T02:41:06Z</time>
      </trkpt>
      <trkpt lat="44.60038" lon="0.80462">
        <ele>155</ele>
        <time>2019-06-09T02:40:22Z</time>
      </trkpt>
      <trkpt lat="44.59973" lon="0.80441">
        <ele>154</ele>
        <time>2019-06-09T02:39:29Z</time>
      </trkpt>
      <trkpt lat="44.59907" lon="0.80537">
        <ele>153</ele>
        <time>2019-06-09T02:38:13Z</time>
      </trkpt>
      <trkpt lat="44.59861" lon="0.80624">
        <ele>148</ele>
        <time>2019-06-09T02:37:11Z</time>
      </trkpt>
      <trkpt lat="44.59786" lon="0.8074">
        <ele>140</ele>
        <time>2019-06-09T02:35:42Z</time>
      </trkpt>
      <trkpt lat="44.59773" lon="0.8077">
        <ele>139</ele>
        <time>2019-06-09T02:35:22Z</time>
      </trkpt>
      <trkpt lat="44.59737" lon="0.80901">
        <ele>134</ele>
        <time>2019-06-09T02:34:02Z</time>
      </trkpt>
      <trkpt lat="44.59714" lon="0.80999">
        <ele>132</ele>
        <time>2019-06-09T02:33:03Z</time>
      </trkpt>
      <trkpt lat="44.5968" lon="0.81127">
        <ele>133</ele>
        <time>2019-06-09T02:31:45Z</time>
      </trkpt>
      <trkpt lat="44.59663" lon="0.81155">
        <ele>133</ele>
        <time>2019-06-09T02:31:24Z</time>
      </trkpt>
      <trkpt lat="44.59654" lon="0.81163">
        <ele>133</ele>
        <time>2019-06-09T02:31:15Z</time>
      </trkpt>
      <trkpt lat="44.59629" lon="0.81206">
        <ele>130</ele>
        <time>2019-06-09T02:30:44Z</time>
      </trkpt>
      <trkpt lat="44.5959" lon="0.81287">
        <ele>125</ele>
        <time>2019-06-09T02:29:48Z</time>
      </trkpt>
      <trkpt lat="44.59582" lon="0.81316">
        <ele>123</ele>
        <time>2019-06-09T02:29:30Z</time>
      </trkpt>
      <trkpt lat="44.5958" lon="0.81334">
        <ele>122</ele>
        <time>2019-06-09T02:29:20Z</time>
      </trkpt>
      <trkpt lat="44.5958" lon="0.81381">
        <ele>117</ele>
        <time>2019-06-09T02:28:53Z</time>
      </trkpt>
      <trkpt lat="44.59522" lon="0.81606">
        <ele>106</ele>
        <time>2019-06-09T02:26:37Z</time>
      </trkpt>
      <trkpt lat="44.59515" lon="0.81663">
        <ele>105</ele>
        <time>2019-06-09T02:26:04Z</time>
      </trkpt>
      <trkpt lat="44.59516" lon="0.81706">
        <ele>105</ele>
        <time>2019-06-09T02:25:39Z</time>
      </trkpt>
      <trkpt lat="44.59508" lon="0.81732">
        <ele>104</ele>
        <time>2019-06-09T02:25:23Z</time>
      </trkpt>
      <trkpt lat="44.59479" lon="0.81774">
        <ele>104</ele>
        <time>2019-06-09T02:24:50Z</time>
      </trkpt>
      <trkpt lat="44.5947" lon="0.81779">
        <ele>104</ele>
        <time>2019-06-09T02:24:42Z</time>
      </trkpt>
      <trkpt lat="44.59461" lon="0.8178">
        <ele>104</ele>
        <time>2019-06-09T02:24:35Z</time>
      </trkpt>
      <trkpt lat="44.59452" lon="0.81786">
        <ele>104</ele>
        <time>2019-06-09T02:24:27Z</time>
      </trkpt>
      <trkpt lat="44.59436" lon="0.81803">
        <ele>105</ele>
        <time>2019-06-09T02:24:11Z</time>
      </trkpt>
      <trkpt lat="44.59417" lon="0.81834">
        <ele>106</ele>
        <time>2019-06-09T02:23:47Z</time>
      </trkpt>
      <trkpt lat="44.59408" lon="0.81859">
        <ele>108</ele>
        <time>2019-06-09T02:23:31Z</time>
      </trkpt>
      <trkpt lat="44.5939" lon="0.8189">
        <ele>112</ele>
        <time>2019-06-09T02:23:09Z</time>
      </trkpt>
      <trkpt lat="44.59336" lon="0.81951">
        <ele>118</ele>
        <time>2019-06-09T02:22:13Z</time>
      </trkpt>
      <trkpt lat="44.59308" lon="0.81971">
        <ele>117</ele>
        <time>2019-06-09T02:21:48Z</time>
      </trkpt>
      <trkpt lat="44.59234" lon="0.81998">
        <ele>118</ele>
        <time>2019-06-09T02:20:47Z</time>
      </trkpt>
      <trkpt lat="44.59215" lon="0.82012">
        <ele>118</ele>
        <time>2019-06-09T02:20:29Z</time>
      </trkpt>
      <trkpt lat="44.5917" lon="0.82054">
        <ele>119</ele>
        <time>2019-06-09T02:19:46Z</time>
      </trkpt>
      <trkpt lat="44.59165" lon="0.82066">
        <ele>119</ele>
        <time>2019-06-09T02:19:38Z</time>
      </trkpt>
      <trkpt lat="44.59171" lon="0.82079">
        <ele>119</ele>
        <time>2019-06-09T02:19:29Z</time>
      </trkpt>
      <trkpt lat="44.59194" lon="0.8211">
        <ele>118</ele>
        <time>2019-06-09T02:19:04Z</time>
      </trkpt>
      <trkpt lat="44.59196" lon="0.82123">
        <ele>118</ele>
        <time>2019-06-09T02:18:56Z</time>
      </trkpt>
      <trkpt lat="44.59192" lon="0.82136">
        <ele>118</ele>
        <time>2019-06-09T02:18:48Z</time>
      </trkpt>
      <trkpt lat="44.59179" lon="0.82158">
        <ele>119</ele>
        <time>2019-06-09T02:18:32Z</time>
      </trkpt>
      <trkpt lat="44.59158" lon="0.82206">
        <ele>121</ele>
        <time>2019-06-09T02:18:00Z</time>
      </trkpt>
      <trkpt lat="44.59106" lon="0.82291">
        <ele>120</ele>
        <time>2019-06-09T02:16:56Z</time>
      </trkpt>
      <trkpt lat="44.59048" lon="0.82401">
        <ele>120</ele>
        <time>2019-06-09T02:15:38Z</time>
      </trkpt>
      <trkpt lat="44.59048" lon="0.82415">
        <ele>120</ele>
        <time>2019-06-09T02:15:30Z</time>
      </trkpt>
      <trkpt lat="44.59053" lon="0.82426">
        <ele>120</ele>
        <time>2019-06-09T02:15:23Z</time>
      </trkpt>
      <trkpt lat="44.59055" lon="0.8244">
        <ele>120</ele>
        <time>2019-06-09T02:15:14Z</time>
      </trkpt>
      <trkpt lat="44.59054" lon="0.82468">
        <ele>121</ele>
        <time>2019-06-09T02:14:58Z</time>
      </trkpt>
      <trkpt lat="44.59046" lon="0.82471">
        <ele>121</ele>
        <time>2019-06-09T02:14:52Z</time>
      </trkpt>
      <trkpt lat="44.58952" lon="0.8244">
        <ele>127</ele>
        <time>2019-06-09T02:13:34Z</time>
      </trkpt>
      <trkpt lat="44.58943" lon="0.82439">
        <ele>127</ele>
        <time>2019-06-09T02:13:27Z</time>
      </trkpt>
      <trkpt lat="44.58938" lon="0.82449">
        <ele>128</ele>
        <time>2019-06-09T02:13:20Z</time>
      </trkpt>
      <trkpt lat="44.58908" lon="0.82571">
        <ele>130</ele>
        <time>2019-06-09T02:12:07Z</time>
      </trkpt>
      <trkpt lat="44.58914" lon="0.82582">
        <ele>130</ele>
        <time>2019-06-09T02:11:59Z</time>
      </trkpt>
      <trkpt lat="44.58923" lon="0.8259">
        <ele>130</ele>
        <time>2019-06-09T02:11:50Z</time>
      </trkpt>
      <trkpt lat="44.58965" lon="0.82613">
        <ele>129</ele>
        <time>2019-06-09T02:11:14Z</time>
      </trkpt>
      <trkpt lat="44.58976" lon="0.82623">
        <ele>129</ele>
        <time>2019-06-09T02:11:04Z</time>
      </trkpt>
      <trkpt lat="44.5898" lon="0.82638">
        <ele>130</ele>
        <time>2019-06-09T02:10:54Z</time>
      </trkpt>
      <trkpt lat="44.58969" lon="0.82639">
        <ele>130</ele>
        <time>2019-06-09T02:10:46Z</time>
      </trkpt>
      <trkpt lat="44.58983" lon="0.82656">
        <ele>131</ele>
        <time>2019-06-09T02:10:31Z</time>
      </trkpt>
      <trkpt lat="44.5898" lon="0.82686">
        <ele>132</ele>
        <time>2019-06-09T02:10:14Z</time>
      </trkpt>
      <trkpt lat="44.58975" lon="0.82705">
        <ele>132</ele>
        <time>2019-06-09T02:10:02Z</time>
      </trkpt>
      <trkpt lat="44.58979" lon="0.82742">
        <ele>133</ele>
        <time>2019-06-09T02:09:41Z</time>
      </trkpt>
      <trkpt lat="44.58984" lon="0.82758">
        <ele>133</ele>
        <time>2019-06-09T02:09:31Z</time>
      </trkpt>
      <trkpt lat="44.58998" lon="0.82776">
        <ele>131</ele>
        <time>2019-06-09T02:09:16Z</time>
      </trkpt>
      <trkpt lat="44.59011" lon="0.82785">
        <ele>130</ele>
        <time>2019-06-09T02:09:04Z</time>
      </trkpt>
      <trkpt lat="44.59035" lon="0.82796">
        <ele>126</ele>
        <time>2019-06-09T02:08:44Z</time>
      </trkpt>
      <trkpt lat="44.59039" lon="0.82808">
        <ele>125</ele>
        <time>2019-06-09T02:08:36Z</time>
      </trkpt>
      <trkpt lat="44.59038" lon="0.82823">
        <ele>125</ele>
        <time>2019-06-09T02:08:28Z</time>
      </trkpt>
      <trkpt lat="44.59021" lon="0.82894">
        <ele>125</ele>
        <time>2019-06-09T02:07:45Z</time>
      </trkpt>
      <trkpt lat="44.59006" lon="0.82914">
        <ele>125</ele>
        <time>2019-06-09T02:07:28Z</time>
      </trkpt>
      <trkpt lat="44.58961" lon="0.82944">
        <ele>127</ele>
        <time>2019-06-09T02:06:48Z</time>
      </trkpt>
      <trkpt lat="44.58943" lon="0.82951">
        <ele>129</ele>
        <time>2019-06-09T02:06:33Z</time>
      </trkpt>
      <trkpt lat="44.58913" lon="0.82979">
        <ele>131</ele>
        <time>2019-06-09T02:06:05Z</time>
      </trkpt>
      <trkpt lat="44.58897" lon="0.82999">
        <ele>132</ele>
        <time>2019-06-09T02:05:47Z</time>
      </trkpt>
      <trkpt lat="44.58879" lon="0.83028">
        <ele>135</ele>
        <time>2019-06-09T02:05:26Z</time>
      </trkpt>
      <trkpt lat="44.58876" lon="0.83052">
        <ele>136</ele>
        <time>2019-06-09T02:05:12Z</time>
      </trkpt>
      <trkpt lat="44.58871" lon="0.83067">
        <ele>137</ele>
        <time>2019-06-09T02:05:02Z</time>
      </trkpt>
      <trkpt lat="44.58854" lon="0.83094">
        <ele>139</ele>
        <time>2019-06-09T02:04:42Z</time>
      </trkpt>
      <trkpt lat="44.58844" lon="0.83106">
        <ele>140</ele>
        <time>2019-06-09T02:04:31Z</time>
      </trkpt>
      <trkpt lat="44.58816" lon="0.83131">
        <ele>142</ele>
        <time>2019-06-09T02:04:05Z</time>
      </trkpt>
      <trkpt lat="44.58765" lon="0.8317">
        <ele>144</ele>
        <time>2019-06-09T02:03:18Z</time>
      </trkpt>
      <trkpt lat="44.58731" lon="0.83201">
        <ele>144</ele>
        <time>2019-06-09T02:02:46Z</time>
      </trkpt>
      <trkpt lat="44.58711" lon="0.83223">
        <ele>144</ele>
        <time>2019-06-09T02:02:25Z</time>
      </trkpt>
      <trkpt lat="44.58678" lon="0.83275">
        <ele>145</ele>
        <time>2019-06-09T02:01:46Z</time>
      </trkpt>
      <trkpt lat="44.58676" lon="0.83294">
        <ele>146</ele>
        <time>2019-06-09T02:01:35Z</time>
      </trkpt>
      <trkpt lat="44.58682" lon="0.83307">
        <ele>146</ele>
        <time>2019-06-09T02:01:26Z</time>
      </trkpt>
      <trkpt lat="44.58717" lon="0.83351">
        <ele>142</ele>
        <time>2019-06-09T02:00:48Z</time>
      </trkpt>
      <trkpt lat="44.58726" lon="0.83385">
        <ele>140</ele>
        <time>2019-06-09T02:00:27Z</time>
      </trkpt>
      <trkpt lat="44.58783" lon="0.83445">
        <ele>134</ele>
        <time>2019-06-09T01:59:30Z</time>
      </trkpt>
      <trkpt lat="44.58801" lon="0.8347">
        <ele>131</ele>
        <time>2019-06-09T01:59:10Z</time>
      </trkpt>
      <trkpt lat="44.58806" lon="0.83484">
        <ele>130</ele>
        <time>2019-06-09T01:59:01Z</time>
      </trkpt>
      <trkpt lat="44.58799" lon="0.83519">
        <ele>129</ele>
        <time>2019-06-09T01:58:40Z</time>
      </trkpt>
      <trkpt lat="44.58799" lon="0.83534">
        <ele>128</ele>
        <time>2019-06-09T01:58:32Z</time>
      </trkpt>
      <trkpt lat="44.58818" lon="0.83622">
        <ele>130</ele>
        <time>2019-06-09T01:57:39Z</time>
      </trkpt>
      <trkpt lat="44.58828" lon="0.83623">
        <ele>129</ele>
        <time>2019-06-09T01:57:31Z</time>
      </trkpt>
      <trkpt lat="44.58869" lon="0.83612">
        <ele>128</ele>
        <time>2019-06-09T01:56:58Z</time>
      </trkpt>
      <trkpt lat="44.58916" lon="0.83603">
        <ele>128</ele>
        <time>2019-06-09T01:56:20Z</time>
      </trkpt>
      <trkpt lat="44.58963" lon="0.83598">
        <ele>132</ele>
        <time>2019-06-09T01:55:42Z</time>
      </trkpt>
      <trkpt lat="44.59012" lon="0.83596">
        <ele>136</ele>
        <time>2019-06-09T01:55:03Z</time>
      </trkpt>
      <trkpt lat="44.5904" lon="0.83599">
        <ele>140</ele>
        <time>2019-06-09T01:54:41Z</time>
      </trkpt>
      <trkpt lat="44.59067" lon="0.83596">
        <ele>143</ele>
        <time>2019-06-09T01:54:19Z</time>
      </trkpt>
      <trkpt lat="44.59098" lon="0.83596">
        <ele>146</ele>
        <time>2019-06-09T01:53:54Z</time>
      </trkpt>
      <trkpt lat="44.59122" lon="0.83598">
        <ele>147</ele>
        <time>2019-06-09T01:53:35Z</time>
      </trkpt>
      <trkpt lat="44.59155" lon="0.83592">
        <ele>148</ele>
        <time>2019-06-09T01:53:08Z</time>
      </trkpt>
      <trkpt lat="44.59192" lon="0.83591">
        <ele>150</ele>
        <time>2019-06-09T01:52:39Z</time>
      </trkpt>
      <trkpt lat="44.59224" lon="0.83582">
        <ele>150</ele>
        <time>2019-06-09T01:52:12Z</time>
      </trkpt>
      <trkpt lat="44.59235" lon="0.83582">
        <ele>151</ele>
        <time>2019-06-09T01:52:04Z</time>
      </trkpt>
      <trkpt lat="44.59238" lon="0.83591">
        <ele>151</ele>
        <time>2019-06-09T01:51:58Z</time>
      </trkpt>
      <trkpt lat="44.59228" lon="0.8362">
        <ele>151</ele>
        <time>2019-06-09T01:51:40Z</time>
      </trkpt>
      <trkpt lat="44.59197" lon="0.83676">
        <ele>150</ele>
        <time>2019-06-09T01:50:59Z</time>
      </trkpt>
      <trkpt lat="44.59192" lon="0.83697">
        <ele>150</ele>
        <time>2019-06-09T01:50:46Z</time>
      </trkpt>
      <trkpt lat="44.59193" lon="0.83797">
        <ele>152</ele>
        <time>2019-06-09T01:49:49Z</time>
      </trkpt>
      <trkpt lat="44.5918" lon="0.8385">
        <ele>153</ele>
        <time>2019-06-09T01:49:18Z</time>
      </trkpt>
      <trkpt lat="44.59146" lon="0.83925">
        <ele>157</ele>
        <time>2019-06-09T01:48:27Z</time>
      </trkpt>
      <trkpt lat="44.59119" lon="0.83975">
        <ele>156</ele>
        <time>2019-06-09T01:47:51Z</time>
      </trkpt>
      <trkpt lat="44.59106" lon="0.84019">
        <ele>154</ele>
        <time>2019-06-09T01:47:24Z</time>
      </trkpt>
      <trkpt lat="44.59108" lon="0.84038">
        <ele>153</ele>
        <time>2019-06-09T01:47:13Z</time>
      </trkpt>
      <trkpt lat="44.59103" lon="0.84083">
        <ele>151</ele>
        <time>2019-06-09T01:46:47Z</time>
      </trkpt>
      <trkpt lat="44.59106" lon="0.84118">
        <ele>148</ele>
        <time>2019-06-09T01:46:27Z</time>
      </trkpt>
      <trkpt lat="44.59112" lon="0.84137">
        <ele>146</ele>
        <time>2019-06-09T01:46:15Z</time>
      </trkpt>
      <trkpt lat="44.59127" lon="0.84168">
        <ele>143</ele>
        <time>2019-06-09T01:45:54Z</time>
      </trkpt>
      <trkpt lat="44.59137" lon="0.8418">
        <ele>143</ele>
        <time>2019-06-09T01:45:43Z</time>
      </trkpt>
      <trkpt lat="44.59143" lon="0.84193">
        <ele>143</ele>
        <time>2019-06-09T01:45:34Z</time>
      </trkpt>
      <trkpt lat="44.59152" lon="0.84222">
        <ele>142</ele>
        <time>2019-06-09T01:45:16Z</time>
      </trkpt>
      <trkpt lat="44.59165" lon="0.84249">
        <ele>141</ele>
        <time>2019-06-09T01:44:58Z</time>
      </trkpt>
      <trkpt lat="44.59174" lon="0.84258">
        <ele>141</ele>
        <time>2019-06-09T01:44:49Z</time>
      </trkpt>
      <trkpt lat="44.59222" lon="0.84325">
        <ele>140</ele>
        <time>2019-06-09T01:43:55Z</time>
      </trkpt>
      <trkpt lat="44.59254" lon="0.84349">
        <ele>138</ele>
        <time>2019-06-09T01:43:26Z</time>
      </trkpt>
      <trkpt lat="44.59262" lon="0.84359">
        <ele>139</ele>
        <time>2019-06-09T01:43:17Z</time>
      </trkpt>
      <trkpt lat="44.59279" lon="0.84382">
        <ele>139</ele>
        <time>2019-06-09T01:42:58Z</time>
      </trkpt>
      <trkpt lat="44.59294" lon="0.84414">
        <ele>141</ele>
        <time>2019-06-09T01:42:36Z</time>
      </trkpt>
      <trkpt lat="44.59308" lon="0.84506">
        <ele>148</ele>
        <time>2019-06-09T01:41:43Z</time>
      </trkpt>
      <trkpt lat="44.59303" lon="0.8454">
        <ele>150</ele>
        <time>2019-06-09T01:41:23Z</time>
      </trkpt>
      <trkpt lat="44.59305" lon="0.84571">
        <ele>152</ele>
        <time>2019-06-09T01:41:05Z</time>
      </trkpt>
      <trkpt lat="44.59314" lon="0.84614">
        <ele>152</ele>
        <time>2019-06-09T01:40:40Z</time>
      </trkpt>
      <trkpt lat="44.59316" lon="0.84646">
        <ele>152</ele>
        <time>2019-06-09T01:40:21Z</time>
      </trkpt>
      <trkpt lat="44.59338" lon="0.84717">
        <ele>153</ele>
        <time>2019-06-09T01:39:37Z</time>
      </trkpt>
      <trkpt lat="44.59366" lon="0.84769">
        <ele>157</ele>
        <time>2019-06-09T01:39:00Z</time>
      </trkpt>
      <trkpt lat="44.59382" lon="0.84789">
        <ele>160</ele>
        <time>2019-06-09T01:38:43Z</time>
      </trkpt>
      <trkpt lat="44.59389" lon="0.84803">
        <ele>161</ele>
        <time>2019-06-09T01:38:33Z</time>
      </trkpt>
      <trkpt lat="44.59399" lon="0.84848">
        <ele>163</ele>
        <time>2019-06-09T01:38:06Z</time>
      </trkpt>
      <trkpt lat="44.594" lon="0.84863">
        <ele>163</ele>
        <time>2019-06-09T01:37:57Z</time>
      </trkpt>
      <trkpt lat="44.59394" lon="0.84893">
        <ele>164</ele>
        <time>2019-06-09T01:37:40Z</time>
      </trkpt>
      <trkpt lat="44.59361" lon="0.84936">
        <ele>164</ele>
        <time>2019-06-09T01:37:04Z</time>
      </trkpt>
      <trkpt lat="44.5933" lon="0.84971">
        <ele>164</ele>
        <time>2019-06-09T01:36:32Z</time>
      </trkpt>
      <trkpt lat="44.59323" lon="0.84999">
        <ele>165</ele>
        <time>2019-06-09T01:36:15Z</time>
      </trkpt>
      <trkpt lat="44.59312" lon="0.85019">
        <ele>164</ele>
        <time>2019-06-09T01:36:01Z</time>
      </trkpt>
      <trkpt lat="44.59304" lon="0.85029">
        <ele>164</ele>
        <time>2019-06-09T01:35:52Z</time>
      </trkpt>
      <trkpt lat="44.59267" lon="0.85062">
        <ele>163</ele>
        <time>2019-06-09T01:35:17Z</time>
      </trkpt>
      <trkpt lat="44.59235" lon="0.85072">
        <ele>163</ele>
        <time>2019-06-09T01:34:51Z</time>
      </trkpt>
      <trkpt lat="44.59184" lon="0.85113">
        <ele>166</ele>
        <time>2019-06-09T01:34:04Z</time>
      </trkpt>
      <trkpt lat="44.59124" lon="0.85154">
        <ele>167</ele>
        <time>2019-06-09T01:33:10Z</time>
      </trkpt>
      <trkpt lat="44.59042" lon="0.85176">
        <ele>170</ele>
        <time>2019-06-09T01:32:03Z</time>
      </trkpt>
      <trkpt lat="44.59021" lon="0.85186">
        <ele>171</ele>
        <time>2019-06-09T01:31:46Z</time>
      </trkpt>
      <trkpt lat="44.59003" lon="0.85201">
        <ele>171</ele>
        <time>2019-06-09T01:31:29Z</time>
      </trkpt>
      <trkpt lat="44.58987" lon="0.85219">
        <ele>171</ele>
        <time>2019-06-09T01:31:12Z</time>
      </trkpt>
      <trkpt lat="44.5897" lon="0.85245">
        <ele>171</ele>
        <time>2019-06-09T01:30:52Z</time>
      </trkpt>
      <trkpt lat="44.58929" lon="0.8529">
        <ele>174</ele>
        <time>2019-06-09T01:30:11Z</time>
      </trkpt>
      <trkpt lat="44.58915" lon="0.853">
        <ele>174</ele>
        <time>2019-06-09T01:29:58Z</time>
      </trkpt>
      <trkpt lat="44.58861" lon="0.85362">
        <ele>178</ele>
        <time>2019-06-09T01:29:02Z</time>
      </trkpt>
      <trkpt lat="44.58829" lon="0.85416">
        <ele>182</ele>
        <time>2019-06-09T01:28:22Z</time>
      </trkpt>
      <trkpt lat="44.58826" lon="0.8545">
        <ele>183</ele>
        <time>2019-06-09T01:28:03Z</time>
      </trkpt>
      <trkpt lat="44.58821" lon="0.85467">
        <ele>183</ele>
        <time>2019-06-09T01:27:52Z</time>
      </trkpt>
      <trkpt lat="44.58802" lon="0.85503">
        <ele>183</ele>
        <time>2019-06-09T01:27:26Z</time>
      </trkpt>
      <trkpt lat="44.58799" lon="0.85515">
        <ele>183</ele>
        <time>2019-06-09T01:27:19Z</time>
      </trkpt>
      <trkpt lat="44.5879" lon="0.85533">
        <ele>182</ele>
        <time>2019-06-09T01:27:07Z</time>
      </trkpt>
      <trkpt lat="44.58775" lon="0.85533">
        <ele>181</ele>
        <time>2019-06-09T01:26:55Z</time>
      </trkpt>
      <trkpt lat="44.58725" lon="0.85515">
        <ele>181</ele>
        <time>2019-06-09T01:26:13Z</time>
      </trkpt>
      <trkpt lat="44.58701" lon="0.85514">
        <ele>182</ele>
        <time>2019-06-09T01:25:54Z</time>
      </trkpt>
      <trkpt lat="44.58677" lon="0.85506">
        <ele>183</ele>
        <time>2019-06-09T01:25:34Z</time>
      </trkpt>
      <trkpt lat="44.58626" lon="0.85497">
        <ele>185</ele>
        <time>2019-06-09T01:24:53Z</time>
      </trkpt>
      <trkpt lat="44.58615" lon="0.85492">
        <ele>185</ele>
        <time>2019-06-09T01:24:44Z</time>
      </trkpt>
      <trkpt lat="44.58549" lon="0.85479">
        <ele>188</ele>
        <time>2019-06-09T01:23:51Z</time>
      </trkpt>
      <trkpt lat="44.58527" lon="0.85479">
        <ele>189</ele>
        <time>2019-06-09T01:23:33Z</time>
      </trkpt>
      <trkpt lat="44.58516" lon="0.85483">
        <ele>190</ele>
        <time>2019-06-09T01:23:24Z</time>
      </trkpt>
      <trkpt lat="44.58436" lon="0.8554">
        <ele>190</ele>
        <time>2019-06-09T01:22:12Z</time>
      </trkpt>
      <trkpt lat="44.58381" lon="0.85563">
        <ele>188</ele>
        <time>2019-06-09T01:21:26Z</time>
      </trkpt>
      <trkpt lat="44.58301" lon="0.85586">
        <ele>185</ele>
        <time>2019-06-09T01:20:21Z</time>
      </trkpt>
      <trkpt lat="44.58252" lon="0.85605">
        <ele>184</ele>
        <time>2019-06-09T01:19:40Z</time>
      </trkpt>
      <trkpt lat="44.58242" lon="0.85615">
        <ele>184</ele>
        <time>2019-06-09T01:19:30Z</time>
      </trkpt>
      <trkpt lat="44.5822" lon="0.85648">
        <ele>185</ele>
        <time>2019-06-09T01:19:04Z</time>
      </trkpt>
      <trkpt lat="44.5817" lon="0.85744">
        <ele>184</ele>
        <time>2019-06-09T01:17:57Z</time>
      </trkpt>
      <trkpt lat="44.58144" lon="0.85774">
        <ele>184</ele>
        <time>2019-06-09T01:17:30Z</time>
      </trkpt>
      <trkpt lat="44.58134" lon="0.85781">
        <ele>184</ele>
        <time>2019-06-09T01:17:21Z</time>
      </trkpt>
      <trkpt lat="44.58111" lon="0.8579">
        <ele>183</ele>
        <time>2019-06-09T01:17:02Z</time>
      </trkpt>
      <trkpt lat="44.58068" lon="0.85812">
        <ele>182</ele>
        <time>2019-06-09T01:16:25Z</time>
      </trkpt>
      <trkpt lat="44.58055" lon="0.85816">
        <ele>182</ele>
        <time>2019-06-09T01:16:14Z</time>
      </trkpt>
      <trkpt lat="44.57981" lon="0.85853">
        <ele>181</ele>
        <time>2019-06-09T01:15:11Z</time>
      </trkpt>
      <trkpt lat="44.57925" lon="0.85884">
        <ele>180</ele>
        <time>2019-06-09T01:14:23Z</time>
      </trkpt>
      <trkpt lat="44.57869" lon="0.85907">
        <ele>184</ele>
        <time>2019-06-09T01:13:36Z</time>
      </trkpt>
      <trkpt lat="44.5786" lon="0.85914">
        <ele>185</ele>
        <time>2019-06-09T01:13:28Z</time>
      </trkpt>
      <trkpt lat="44.57847" lon="0.85918">
        <ele>186</ele>
        <time>2019-06-09T01:13:18Z</time>
      </trkpt>
      <trkpt lat="44.57784" lon="0.85952">
        <ele>189</ele>
        <time>2019-06-09T01:12:24Z</time>
      </trkpt>
      <trkpt lat="44.57664" lon="0.86002">
        <ele>192</ele>
        <time>2019-06-09T01:10:43Z</time>
      </trkpt>
      <trkpt lat="44.57581" lon="0.86047">
        <ele>191</ele>
        <time>2019-06-09T01:09:32Z</time>
      </trkpt>
      <trkpt lat="44.57544" lon="0.86061">
        <ele>192</ele>
        <time>2019-06-09T01:09:01Z</time>
      </trkpt>
      <trkpt lat="44.57521" lon="0.86066">
        <ele>192</ele>
        <time>2019-06-09T01:08:43Z</time>
      </trkpt>
      <trkpt lat="44.57496" lon="0.86066">
        <ele>192</ele>
        <time>2019-06-09T01:08:23Z</time>
      </trkpt>
      <trkpt lat="44.57455" lon="0.86071">
        <ele>194</ele>
        <time>2019-06-09T01:07:50Z</time>
      </trkpt>
      <trkpt lat="44.57441" lon="0.86069">
        <ele>195</ele>
        <time>2019-06-09T01:07:39Z</time>
      </trkpt>
      <trkpt lat="44.57422" lon="0.86058">
        <ele>196</ele>
        <time>2019-06-09T01:07:22Z</time>
      </trkpt>
      <trkpt lat="44.57402" lon="0.86052">
        <ele>196</ele>
        <time>2019-06-09T01:07:06Z</time>
      </trkpt>
      <trkpt lat="44.57376" lon="0.86023">
        <ele>195</ele>
        <time>2019-06-09T01:06:39Z</time>
      </trkpt>
      <trkpt lat="44.57354" lon="0.86005">
        <ele>195</ele>
        <time>2019-06-09T01:06:19Z</time>
      </trkpt>
      <trkpt lat="44.57348" lon="0.85994">
        <ele>194</ele>
        <time>2019-06-09T01:06:11Z</time>
      </trkpt>
      <trkpt lat="44.57341" lon="0.86005">
        <ele>194</ele>
        <time>2019-06-09T01:06:02Z</time>
      </trkpt>
      <trkpt lat="44.57331" lon="0.8603">
        <ele>196</ele>
        <time>2019-06-09T01:05:46Z</time>
      </trkpt>
      <trkpt lat="44.57328" lon="0.86044">
        <ele>196</ele>
        <time>2019-06-09T01:05:38Z</time>
      </trkpt>
      <trkpt lat="44.57317" lon="0.86115">
        <ele>198</ele>
        <time>2019-06-09T01:04:56Z</time>
      </trkpt>
      <trkpt lat="44.57316" lon="0.86144">
        <ele>198</ele>
        <time>2019-06-09T01:04:40Z</time>
      </trkpt>
      <trkpt lat="44.5732" lon="0.86238">
        <ele>199</ele>
        <time>2019-06-09T01:03:46Z</time>
      </trkpt>
      <trkpt lat="44.57333" lon="0.86325">
        <ele>204</ele>
        <time>2019-06-09T01:02:55Z</time>
      </trkpt>
      <trkpt lat="44.57338" lon="0.8638">
        <ele>206</ele>
        <time>2019-06-09T01:02:24Z</time>
      </trkpt>
      <trkpt lat="44.57354" lon="0.86437">
        <ele>207</ele>
        <time>2019-06-09T01:01:49Z</time>
      </trkpt>
      <trkpt lat="44.57356" lon="0.86465">
        <ele>207</ele>
        <time>2019-06-09T01:01:33Z</time>
      </trkpt>
      <trkpt lat="44.57347" lon="0.86509">
        <ele>206</ele>
        <time>2019-06-09T01:01:07Z</time>
      </trkpt>
      <trkpt lat="44.57327" lon="0.86573">
        <ele>206</ele>
        <time>2019-06-09T01:00:27Z</time>
      </trkpt>
      <trkpt lat="44.57303" lon="0.86628">
        <ele>205</ele>
        <time>2019-06-09T00:59:50Z</time>
      </trkpt>
      <trkpt lat="44.57283" lon="0.86692">
        <ele>205</ele>
        <time>2019-06-09T00:59:10Z</time>
      </trkpt>
      <trkpt lat="44.57261" lon="0.86738">
        <ele>205</ele>
        <time>2019-06-09T00:58:38Z</time>
      </trkpt>
      <trkpt lat="44.57213" lon="0.8688">
        <ele>202</ele>
        <time>2019-06-09T00:57:09Z</time>
      </trkpt>
      <trkpt lat="44.57201" lon="0.86894">
        <ele>202</ele>
        <time>2019-06-09T00:56:56Z</time>
      </trkpt>
      <trkpt lat="44.57179" lon="0.86936">
        <ele>201</ele>
        <time>2019-06-09T00:56:27Z</time>
      </trkpt>
      <trkpt lat="44.57169" lon="0.86968">
        <ele>201</ele>
        <time>2019-06-09T00:56:07Z</time>
      </trkpt>
      <trkpt lat="44.57167" lon="0.86994">
        <ele>201</ele>
        <time>2019-06-09T00:55:52Z</time>
      </trkpt>
      <trkpt lat="44.57146" lon="0.87006">
        <ele>201</ele>
        <time>2019-06-09T00:55:34Z</time>
      </trkpt>
      <trkpt lat="44.57097" lon="0.87069">
        <ele>203</ele>
        <time>2019-06-09T00:54:40Z</time>
      </trkpt>
      <trkpt lat="44.57059" lon="0.87101">
        <ele>203</ele>
        <time>2019-06-09T00:54:05Z</time>
      </trkpt>
      <trkpt lat="44.57008" lon="0.87123">
        <ele>203</ele>
        <time>2019-06-09T00:53:22Z</time>
      </trkpt>
      <trkpt lat="44.56989" lon="0.87135">
        <ele>203</ele>
        <time>2019-06-09T00:53:05Z</time>
      </trkpt>
      <trkpt lat="44.56977" lon="0.87138">
        <ele>202</ele>
        <time>2019-06-09T00:52:56Z</time>
      </trkpt>
      <trkpt lat="44.56916" lon="0.87145">
        <ele>200</ele>
        <time>2019-06-09T00:52:07Z</time>
      </trkpt>
      <trkpt lat="44.56884" lon="0.87152">
        <ele>201</ele>
        <time>2019-06-09T00:51:41Z</time>
      </trkpt>
      <trkpt lat="44.56865" lon="0.87154">
        <ele>201</ele>
        <time>2019-06-09T00:51:26Z</time>
      </trkpt>
      <trkpt lat="44.56855" lon="0.87152">
        <ele>201</ele>
        <time>2019-06-09T00:51:17Z</time>
      </trkpt>
      <trkpt lat="44.56826" lon="0.87157">
        <ele>202</ele>
        <time>2019-06-09T00:50:54Z</time>
      </trkpt>
      <trkpt lat="44.56807" lon="0.87163">
        <ele>202</ele>
        <time>2019-06-09T00:50:38Z</time>
      </trkpt>
      <trkpt lat="44.56799" lon="0.87168">
        <ele>202</ele>
        <time>2019-06-09T00:50:31Z</time>
      </trkpt>
      <trkpt lat="44.56732" lon="0.87184">
        <ele>203</ele>
        <time>2019-06-09T00:49:37Z</time>
      </trkpt>
      <trkpt lat="44.56701" lon="0.8719">
        <ele>203</ele>
        <time>2019-06-09T00:49:12Z</time>
      </trkpt>
      <trkpt lat="44.56669" lon="0.87193">
        <ele>204</ele>
        <time>2019-06-09T00:48:46Z</time>
      </trkpt>
      <trkpt lat="44.5664" lon="0.87201">
        <ele>203</ele>
        <time>2019-06-09T00:48:23Z</time>
      </trkpt>
      <trkpt lat="44.56571" lon="0.872">
        <ele>203</ele>
        <time>2019-06-09T00:47:27Z</time>
      </trkpt>
      <trkpt lat="44.56551" lon="0.87202">
        <ele>203</ele>
        <time>2019-06-09T00:47:11Z</time>
      </trkpt>
      <trkpt lat="44.56541" lon="0.87199">
        <ele>202</ele>
        <time>2019-06-09T00:47:03Z</time>
      </trkpt>
      <trkpt lat="44.5652" lon="0.87204">
        <ele>202</ele>
        <time>2019-06-09T00:46:46Z</time>
      </trkpt>
      <trkpt lat="44.5649" lon="0.87204">
        <ele>202</ele>
        <time>2019-06-09T00:46:22Z</time>
      </trkpt>
      <trkpt lat="44.56459" lon="0.87199">
        <ele>202</ele>
        <time>2019-06-09T00:45:57Z</time>
      </trkpt>
      <trkpt lat="44.56384" lon="0.87218">
        <ele>199</ele>
        <time>2019-06-09T00:44:56Z</time>
      </trkpt>
      <trkpt lat="44.56349" lon="0.87233">
        <ele>197</ele>
        <time>2019-06-09T00:44:27Z</time>
      </trkpt>
      <trkpt lat="44.56336" lon="0.87243">
        <ele>197</ele>
        <time>2019-06-09T00:44:15Z</time>
      </trkpt>
      <trkpt lat="44.56321" lon="0.87248">
        <ele>196</ele>
        <time>2019-06-09T00:44:03Z</time>
      </trkpt>
      <trkpt lat="44.563" lon="0.87263">
        <ele>195</ele>
        <time>2019-06-09T00:43:44Z</time>
      </trkpt>
      <trkpt lat="44.56278" lon="0.87268">
        <ele>194</ele>
        <time>2019-06-09T00:43:26Z</time>
      </trkpt>
      <trkpt lat="44.56207" lon="0.87277">
        <ele>191</ele>
        <time>2019-06-09T00:42:29Z</time>
      </trkpt>
      <trkpt lat="44.5616" lon="0.87273">
        <ele>190</ele>
        <time>2019-06-09T00:41:51Z</time>
      </trkpt>
      <trkpt lat="44.56089" lon="0.87262">
        <ele>192</ele>
        <time>2019-06-09T00:40:54Z</time>
      </trkpt>
      <trkpt lat="44.56057" lon="0.87264">
        <ele>190</ele>
        <time>2019-06-09T00:40:28Z</time>
      </trkpt>
      <trkpt lat="44.55938" lon="0.87261">
        <ele>180</ele>
        <time>2019-06-09T00:38:53Z</time>
      </trkpt>
      <trkpt lat="44.55812" lon="0.87281">
        <ele>169</ele>
        <time>2019-06-09T00:37:11Z</time>
      </trkpt>
      <trkpt lat="44.55795" lon="0.8729">
        <ele>168</ele>
        <time>2019-06-09T00:36:57Z</time>
      </trkpt>
      <trkpt lat="44.5574" lon="0.87341">
        <ele>165</ele>
        <time>2019-06-09T00:36:04Z</time>
      </trkpt>
      <trkpt lat="44.5569" lon="0.87401">
        <ele>167</ele>
        <time>2019-06-09T00:35:11Z</time>
      </trkpt>
      <trkpt lat="44.55666" lon="0.87424">
        <ele>167</ele>
        <time>2019-06-09T00:34:48Z</time>
      </trkpt>
      <trkpt lat="44.55649" lon="0.87446">
        <ele>167</ele>
        <time>2019-06-09T00:34:30Z</time>
      </trkpt>
      <trkpt lat="44.5565" lon="0.87456">
        <ele>167</ele>
        <time>2019-06-09T00:34:24Z</time>
      </trkpt>
      <trkpt lat="44.55685" lon="0.87497">
        <ele>170</ele>
        <time>2019-06-09T00:33:47Z</time>
      </trkpt>
      <trkpt lat="44.557" lon="0.87518">
        <ele>170</ele>
        <time>2019-06-09T00:33:30Z</time>
      </trkpt>
      <trkpt lat="44.55694" lon="0.87577">
        <ele>169</ele>
        <time>2019-06-09T00:32:56Z</time>
      </trkpt>
      <trkpt lat="44.55677" lon="0.87678">
        <ele>170</ele>
        <time>2019-06-09T00:31:57Z</time>
      </trkpt>
      <trkpt lat="44.55732" lon="0.87731">
        <ele>169</ele>
        <time>2019-06-09T00:31:04Z</time>
      </trkpt>
      <trkpt lat="44.55763" lon="0.87767">
        <ele>172</ele>
        <time>2019-06-09T00:30:32Z</time>
      </trkpt>
      <trkpt lat="44.55812" lon="0.87812">
        <ele>177</ele>
        <time>2019-06-09T00:29:45Z</time>
      </trkpt>
      <trkpt lat="44.55827" lon="0.87839">
        <ele>178</ele>
        <time>2019-06-09T00:29:25Z</time>
      </trkpt>
      <trkpt lat="44.5585" lon="0.87899">
        <ele>174</ele>
        <time>2019-06-09T00:28:46Z</time>
      </trkpt>
      <trkpt lat="44.55856" lon="0.87965">
        <ele>167</ele>
        <time>2019-06-09T00:28:08Z</time>
      </trkpt>
      <trkpt lat="44.55785" lon="0.88118">
        <ele>148</ele>
        <time>2019-06-09T00:26:24Z</time>
      </trkpt>
      <trkpt lat="44.55766" lon="0.88167">
        <ele>145</ele>
        <time>2019-06-09T00:25:52Z</time>
      </trkpt>
      <trkpt lat="44.55737" lon="0.88255">
        <ele>144</ele>
        <time>2019-06-09T00:24:57Z</time>
      </trkpt>
      <trkpt lat="44.55704" lon="0.88332">
        <ele>139</ele>
        <time>2019-06-09T00:24:06Z</time>
      </trkpt>
      <trkpt lat="44.55695" lon="0.8835">
        <ele>137</ele>
        <time>2019-06-09T00:23:53Z</time>
      </trkpt>
      <trkpt lat="44.55653" lon="0.88392">
        <ele>131</ele>
        <time>2019-06-09T00:23:12Z</time>
      </trkpt>
      <trkpt lat="44.55678" lon="0.88432">
        <ele>130</ele>
        <time>2019-06-09T00:22:42Z</time>
      </trkpt>
      <trkpt lat="44.55695" lon="0.88436">
        <ele>128</ele>
        <time>2019-06-09T00:22:28Z</time>
      </trkpt>
      <trkpt lat="44.55719" lon="0.88423">
        <ele>127</ele>
        <time>2019-06-09T00:22:07Z</time>
      </trkpt>
      <trkpt lat="44.55775" lon="0.88361">
        <ele>132</ele>
        <time>2019-06-09T00:21:10Z</time>
      </trkpt>
      <trkpt lat="44.5579" lon="0.88354">
        <ele>130</ele>
        <time>2019-06-09T00:20:57Z</time>
      </trkpt>
      <trkpt lat="44.55799" lon="0.88363">
        <ele>128</ele>
        <time>2019-06-09T00:20:48Z</time>
      </trkpt>
      <trkpt lat="44.55809" lon="0.88347">
        <ele>128</ele>
        <time>2019-06-09T00:20:36Z</time>
      </trkpt>
      <trkpt lat="44.55806" lon="0.88349">
        <ele>128</ele>
        <time>2019-06-09T00:20:34Z</time>
      </trkpt>
      <trkpt lat="44.5581" lon="0.88336">
        <ele>129</ele>
        <time>2019-06-09T00:20:26Z</time>
      </trkpt>
      <trkpt lat="44.5582" lon="0.88335">
        <ele>127</ele>
        <time>2019-06-09T00:20:18Z</time>
      </trkpt>
      <trkpt lat="44.55916" lon="0.88375">
        <ele>125</ele>
        <time>2019-06-09T00:18:57Z</time>
      </trkpt>
      <trkpt lat="44.55909" lon="0.88394">
        <ele>123</ele>
        <time>2019-06-09T00:18:45Z</time>
      </trkpt>
      <trkpt lat="44.55922" lon="0.88402">
        <ele>124</ele>
        <time>2019-06-09T00:18:34Z</time>
        <extensions>
          <visugpx:TrkExtension xmlns:visugpx="https://www.visugpx.com/editgpx/">
            <visugpx:node>1</visugpx:node>
            </visugpx:TrkExtension>
        </extensions>
      </trkpt>
      <trkpt lat="44.55934" lon="0.88433">
        <ele>120.6</ele>
      </trkpt>
      <trkpt lat="44.55949" lon="0.88454">
        <ele>119.2</ele>
      </trkpt>
      <trkpt lat="44.55965" lon="0.88481">
        <ele>119.8</ele>
      </trkpt>
      <trkpt lat="44.55984" lon="0.88517">
        <ele>120.3</ele>
      </trkpt>
      <trkpt lat="44.56" lon="0.88552">
        <ele>118.7</ele>
      </trkpt>
      <trkpt lat="44.56011" lon="0.88576">
        <ele>119.8</ele>
      </trkpt>
      <trkpt lat="44.56008" lon="0.88602">
        <ele>120.4</ele>
      </trkpt>
      <trkpt lat="44.56007" lon="0.88624">
        <ele>119.8</ele>
      </trkpt>
      <trkpt lat="44.56007" lon="0.88638">
        <ele>119.3</ele>
      </trkpt>
      <trkpt lat="44.56006" lon="0.88667">
        <ele>120.3</ele>
      </trkpt>
      <trkpt lat="44.56029" lon="0.88685">
        <ele>118</ele>
      </trkpt>
      <trkpt lat="44.56047" lon="0.88693">
        <ele>118</ele>
      </trkpt>
      <trkpt lat="44.56038" lon="0.88709">
        <ele>118.5</ele>
      </trkpt>
      <trkpt lat="44.56034" lon="0.88714">
        <ele>118.7</ele>
      </trkpt>
      <trkpt lat="44.56023" lon="0.88732">
        <ele>121.1</ele>
      </trkpt>
      <trkpt lat="44.56019" lon="0.8874">
        <ele>122.5</ele>
      </trkpt>
      <trkpt lat="44.56023" lon="0.88744">
        <ele>123</ele>
      </trkpt>
      <trkpt lat="44.56042" lon="0.88768">
        <ele>128.3</ele>
      </trkpt>
      <trkpt lat="44.56084" lon="0.88849">
        <ele>135.7</ele>
      </trkpt>
      <trkpt lat="44.56091" lon="0.88855">
        <ele>137.8</ele>
      </trkpt>
      <trkpt lat="44.56146" lon="0.88864">
        <ele>141.9</ele>
      </trkpt>
      <trkpt lat="44.56153" lon="0.88884">
        <ele>149.8</ele>
      </trkpt>
      <trkpt lat="44.56163" lon="0.88883">
        <ele>149.9</ele>
      </trkpt>
      <trkpt lat="44.56178" lon="0.88881">
        <ele>152.2</ele>
      </trkpt>
      <trkpt lat="44.56188" lon="0.88875">
        <ele>152.5</ele>
      </trkpt>
      <trkpt lat="44.56225" lon="0.88879">
        <ele>163.1</ele>
      </trkpt>
      <trkpt lat="44.56238" lon="0.88885">
        <ele>167.9</ele>
      </trkpt>
      <trkpt lat="44.56239" lon="0.8889">
        <ele>168.9</ele>
      </trkpt>
      <trkpt lat="44.56231" lon="0.8892">
        <ele>169.8</ele>
      </trkpt>
      <trkpt lat="44.56231" lon="0.88936">
        <ele>172.9</ele>
      </trkpt>
      <trkpt lat="44.56244" lon="0.88968">
        <ele>178.3</ele>
      </trkpt>
      <trkpt lat="44.56253" lon="0.88959">
        <ele>180.4</ele>
      </trkpt>
      <trkpt lat="44.5627" lon="0.88953">
        <ele>182.9</ele>
      </trkpt>
      <trkpt lat="44.56285" lon="0.8894">
        <ele>183.9</ele>
      </trkpt>
      <trkpt lat="44.56336" lon="0.88924">
        <ele>185.7</ele>
      </trkpt>
      <trkpt lat="44.56348" lon="0.88929">
        <ele>186.9</ele>
      </trkpt>
      <trkpt lat="44.56365" lon="0.88921">
        <ele>186.8</ele>
      </trkpt>
      <trkpt lat="44.56417" lon="0.88946">
        <ele>189.1</ele>
      </trkpt>
      <trkpt lat="44.56422" lon="0.88958">
        <ele>189.8</ele>
      </trkpt>
      <trkpt lat="44.56421" lon="0.8898">
        <ele>190</ele>
      </trkpt>
      <trkpt lat="44.56441" lon="0.89001">
        <ele>190.7</ele>
      </trkpt>
      <trkpt lat="44.56442" lon="0.89005">
        <ele>190.6</ele>
      </trkpt>
      <trkpt lat="44.56442" lon="0.8901">
        <ele>190.4</ele>
      </trkpt>
      <trkpt lat="44.56429" lon="0.8903">
        <ele>188.1</ele>
      </trkpt>
      <trkpt lat="44.56422" lon="0.89048">
        <ele>185.5</ele>
      </trkpt>
      <trkpt lat="44.56406" lon="0.89086">
        <ele>179</ele>
      </trkpt>
      <trkpt lat="44.5642" lon="0.89114">
        <ele>179</ele>
      </trkpt>
      <trkpt lat="44.56429" lon="0.89126">
        <ele>177.8</ele>
      </trkpt>
      <trkpt lat="44.56437" lon="0.89141">
        <ele>175.5</ele>
      </trkpt>
      <trkpt lat="44.56446" lon="0.89151">
        <ele>174.5</ele>
      </trkpt>
      <trkpt lat="44.5645" lon="0.89161">
        <ele>172.6</ele>
      </trkpt>
      <trkpt lat="44.5645" lon="0.89178">
        <ele>169.8</ele>
      </trkpt>
      <trkpt lat="44.56444" lon="0.89191">
        <ele>168.3</ele>
      </trkpt>
      <trkpt lat="44.5644" lon="0.89208">
        <ele>164.9</ele>
      </trkpt>
      <trkpt lat="44.56439" lon="0.89232">
        <ele>161.3</ele>
      </trkpt>
      <trkpt lat="44.56436" lon="0.89246">
        <ele>159.5</ele>
      </trkpt>
      <trkpt lat="44.56432" lon="0.89257">
        <ele>158.5</ele>
      </trkpt>
      <trkpt lat="44.56435" lon="0.89299">
        <ele>157.5</ele>
      </trkpt>
      <trkpt lat="44.56433" lon="0.89316">
        <ele>159.1</ele>
      </trkpt>
      <trkpt lat="44.56439" lon="0.89386">
        <ele>168.5</ele>
      </trkpt>
      <trkpt lat="44.56446" lon="0.89397">
        <ele>170.1</ele>
      </trkpt>
      <trkpt lat="44.56449" lon="0.89427">
        <ele>173.7</ele>
      </trkpt>
      <trkpt lat="44.56485" lon="0.89401">
        <ele>175.5</ele>
      </trkpt>
      <trkpt lat="44.565" lon="0.89437">
        <ele>179.5</ele>
      </trkpt>
      <trkpt lat="44.56505" lon="0.89469">
        <ele>182.5</ele>
      </trkpt>
      <trkpt lat="44.56504" lon="0.89503">
        <ele>184</ele>
      </trkpt>
      <trkpt lat="44.56499" lon="0.89529">
        <ele>185</ele>
      </trkpt>
      <trkpt lat="44.56495" lon="0.89588">
        <ele>188.2</ele>
      </trkpt>
      <trkpt lat="44.56497" lon="0.89635">
        <ele>192.5</ele>
      </trkpt>
      <trkpt lat="44.56508" lon="0.89684">
        <ele>195.8</ele>
      </trkpt>
      <trkpt lat="44.56511" lon="0.89716">
        <ele>197.8</ele>
      </trkpt>
      <trkpt lat="44.56511" lon="0.898">
        <ele>202.3</ele>
      </trkpt>
      <trkpt lat="44.56508" lon="0.89822">
        <ele>202.9</ele>
      </trkpt>
      <trkpt lat="44.56502" lon="0.89852">
        <ele>203</ele>
      </trkpt>
      <trkpt lat="44.56503" lon="0.89864">
        <ele>202.9</ele>
      </trkpt>
      <trkpt lat="44.56515" lon="0.89901">
        <ele>201.7</ele>
      </trkpt>
      <trkpt lat="44.56552" lon="0.89981">
        <ele>202.7</ele>
      </trkpt>
      <trkpt lat="44.56566" lon="0.89998">
        <ele>203.8</ele>
      </trkpt>
      <trkpt lat="44.56591" lon="0.90054">
        <ele>203.9</ele>
      </trkpt>
      <trkpt lat="44.5661" lon="0.90076">
        <ele>202.9</ele>
      </trkpt>
      <trkpt lat="44.56627" lon="0.90085">
        <ele>203.3</ele>
      </trkpt>
      <trkpt lat="44.56666" lon="0.901">
        <ele>202.4</ele>
      </trkpt>
      <trkpt lat="44.56688" lon="0.90116">
        <ele>202.4</ele>
      </trkpt>
      <trkpt lat="44.56714" lon="0.90138">
        <ele>202.2</ele>
      </trkpt>
      <trkpt lat="44.56718" lon="0.90152">
        <ele>201.1</ele>
      </trkpt>
      <trkpt lat="44.5673" lon="0.90169">
        <ele>200.3</ele>
      </trkpt>
      <trkpt lat="44.56752" lon="0.90188">
        <ele>200.7</ele>
      </trkpt>
      <trkpt lat="44.5676" lon="0.90203">
        <ele>201</ele>
        <extensions>
          <visugpx:TrkExtension xmlns:visugpx="https://www.visugpx.com/editgpx/">
            <visugpx:node>2</visugpx:node>
            </visugpx:TrkExtension>
        </extensions>
      </trkpt>
      <trkpt lat="44.56766" lon="0.90216">
        <ele>201.1</ele>
      </trkpt>
      <trkpt lat="44.56773" lon="0.90228">
        <ele>201.6</ele>
      </trkpt>
      <trkpt lat="44.56769" lon="0.90242">
        <ele>201.5</ele>
      </trkpt>
      <trkpt lat="44.5677" lon="0.90266">
        <ele>202.3</ele>
      </trkpt>
      <trkpt lat="44.56769" lon="0.90272">
        <ele>202.5</ele>
      </trkpt>
      <trkpt lat="44.56764" lon="0.90278">
        <ele>202.5</ele>
      </trkpt>
      <trkpt lat="44.56587" lon="0.90354">
        <ele>208.9</ele>
      </trkpt>
      <trkpt lat="44.5659" lon="0.90374">
        <ele>210.2</ele>
      </trkpt>
      <trkpt lat="44.56604" lon="0.90595">
        <ele>213.9</ele>
      </trkpt>
      <trkpt lat="44.56625" lon="0.90622">
        <ele>214.1</ele>
      </trkpt>
      <trkpt lat="44.56659" lon="0.90683">
        <ele>215.3</ele>
      </trkpt>
      <trkpt lat="44.56685" lon="0.90723">
        <ele>218.3</ele>
      </trkpt>
      <trkpt lat="44.56709" lon="0.90748">
        <ele>220.5</ele>
      </trkpt>
      <trkpt lat="44.56744" lon="0.90773">
        <ele>222</ele>
      </trkpt>
      <trkpt lat="44.56884" lon="0.90844">
        <ele>224.9</ele>
      </trkpt>
      <trkpt lat="44.56985" lon="0.90884">
        <ele>225.8</ele>
      </trkpt>
      <trkpt lat="44.57002" lon="0.9089">
        <ele>225.9</ele>
      </trkpt>
      <trkpt lat="44.57128" lon="0.90944">
        <ele>231.2</ele>
      </trkpt>
      <trkpt lat="44.57156" lon="0.90969">
        <ele>232.6</ele>
      </trkpt>
      <trkpt lat="44.57179" lon="0.91005">
        <ele>232.6</ele>
      </trkpt>
      <trkpt lat="44.57313" lon="0.9145">
        <ele>240.5</ele>
        <extensions>
          <visugpx:TrkExtension xmlns:visugpx="https://www.visugpx.com/editgpx/">
            <visugpx:node>3</visugpx:node>
            </visugpx:TrkExtension>
        </extensions>
      </trkpt>
    </trkseg>
  </trk>
</gpx>